sensor_id;sensor_type;location;lat;lon;timestamp;temperature;humidity
17415;DHT22;8825;48.086;16.426;2024-02-23T00:01:09;11.90;65.00
17415;DHT22;8825;48.086;16.426;2024-02-23T00:03:38;11.90;65.30
17415;DHT22;8825;48.086;16.426;2024-02-23T00:06:06;11.90;65.70
17415;DHT22;8825;48.086;16.426;2024-02-23T00:08:35;11.90;66.00
17415;DHT22;8825;48.086;16.426;2024-02-23T00:11:04;11.80;66.00
17415;DHT22;8825;48.086;16.426;2024-02-23T00:13:32;11.80;66.20
17415;DHT22;8825;48.086;16.426;2024-02-23T00:16:00;11.80;66.30
17415;DHT22;8825;48.086;16.426;2024-02-23T00:18:27;11.80;66.70
17415;DHT22;8825;48.086;16.426;2024-02-23T00:20:55;11.80;66.50
17415;DHT22;8825;48.086;16.426;2024-02-23T00:23:23;11.80;66.60
17415;DHT22;8825;48.086;16.426;2024-02-23T00:25:50;11.70;66.70
17415;DHT22;8825;48.086;16.426;2024-02-23T00:28:18;11.70;67.60
17415;DHT22;8825;48.086;16.426;2024-02-23T00:30:45;11.70;67.00
17415;DHT22;8825;48.086;16.426;2024-02-23T00:33:13;11.70;67.10
17415;DHT22;8825;48.086;16.426;2024-02-23T00:35:41;11.70;67.20
17415;DHT22;8825;48.086;16.426;2024-02-23T00:38:08;11.60;67.20
17415;DHT22;8825;48.086;16.426;2024-02-23T00:40:36;11.60;67.50
17415;DHT22;8825;48.086;16.426;2024-02-23T00:43:04;11.60;67.70
17415;DHT22;8825;48.086;16.426;2024-02-23T00:45:32;11.50;67.80
17415;DHT22;8825;48.086;16.426;2024-02-23T00:47:59;11.50;68.10
17415;DHT22;8825;48.086;16.426;2024-02-23T00:50:27;11.40;68.40
17415;DHT22;8825;48.086;16.426;2024-02-23T00:52:55;11.40;68.70
17415;DHT22;8825;48.086;16.426;2024-02-23T00:55:22;11.30;68.90
17415;DHT22;8825;48.086;16.426;2024-02-23T00:57:51;11.30;69.20
17415;DHT22;8825;48.086;16.426;2024-02-23T01:00:19;11.30;69.30
17415;DHT22;8825;48.086;16.426;2024-02-23T01:02:46;11.30;69.50
17415;DHT22;8825;48.086;16.426;2024-02-23T01:05:14;11.30;69.70
17415;DHT22;8825;48.086;16.426;2024-02-23T01:07:41;11.20;69.80
17415;DHT22;8825;48.086;16.426;2024-02-23T01:10:09;11.20;70.00
17415;DHT22;8825;48.086;16.426;2024-02-23T01:12:37;11.20;70.10
17415;DHT22;8825;48.086;16.426;2024-02-23T01:15:05;11.10;70.10
17415;DHT22;8825;48.086;16.426;2024-02-23T01:17:32;11.20;70.30
17415;DHT22;8825;48.086;16.426;2024-02-23T01:20:00;11.20;70.50
17415;DHT22;8825;48.086;16.426;2024-02-23T01:22:28;11.10;70.70
17415;DHT22;8825;48.086;16.426;2024-02-23T01:24:55;11.10;70.80
17415;DHT22;8825;48.086;16.426;2024-02-23T01:27:23;11.10;71.00
17415;DHT22;8825;48.086;16.426;2024-02-23T01:29:50;11.00;71.10
17415;DHT22;8825;48.086;16.426;2024-02-23T01:32:18;11.00;71.20
17415;DHT22;8825;48.086;16.426;2024-02-23T01:34:45;11.00;71.30
17415;DHT22;8825;48.086;16.426;2024-02-23T01:37:13;11.00;71.40
17415;DHT22;8825;48.086;16.426;2024-02-23T01:39:41;11.00;71.60
17415;DHT22;8825;48.086;16.426;2024-02-23T01:42:09;11.00;72.30
17415;DHT22;8825;48.086;16.426;2024-02-23T01:44:36;11.00;71.60
17415;DHT22;8825;48.086;16.426;2024-02-23T01:47:04;11.00;71.50
17415;DHT22;8825;48.086;16.426;2024-02-23T01:49:32;11.00;71.60
17415;DHT22;8825;48.086;16.426;2024-02-23T01:52:01;11.00;71.70
17415;DHT22;8825;48.086;16.426;2024-02-23T01:54:30;11.00;71.70
17415;DHT22;8825;48.086;16.426;2024-02-23T01:56:58;11.00;71.90
17415;DHT22;8825;48.086;16.426;2024-02-23T01:59:27;11.00;72.40
17415;DHT22;8825;48.086;16.426;2024-02-23T02:01:55;11.00;72.10
17415;DHT22;8825;48.086;16.426;2024-02-23T02:04:23;11.00;72.30
17415;DHT22;8825;48.086;16.426;2024-02-23T02:06:50;11.00;72.40
17415;DHT22;8825;48.086;16.426;2024-02-23T02:09:18;11.00;72.50
17415;DHT22;8825;48.086;16.426;2024-02-23T02:11:49;10.90;72.30
17415;DHT22;8825;48.086;16.426;2024-02-23T02:14:17;10.90;72.40
17415;DHT22;8825;48.086;16.426;2024-02-23T02:16:45;10.90;72.50
17415;DHT22;8825;48.086;16.426;2024-02-23T02:19:13;10.90;72.70
17415;DHT22;8825;48.086;16.426;2024-02-23T02:21:41;10.80;72.70
17415;DHT22;8825;48.086;16.426;2024-02-23T02:24:09;10.80;72.90
17415;DHT22;8825;48.086;16.426;2024-02-23T02:26:37;10.70;72.90
17415;DHT22;8825;48.086;16.426;2024-02-23T02:29:05;10.80;73.00
17415;DHT22;8825;48.086;16.426;2024-02-23T02:31:33;10.70;73.00
17415;DHT22;8825;48.086;16.426;2024-02-23T02:34:03;10.70;72.30
17415;DHT22;8825;48.086;16.426;2024-02-23T02:36:30;10.80;73.10
17415;DHT22;8825;48.086;16.426;2024-02-23T02:38:58;10.80;73.30
17415;DHT22;8825;48.086;16.426;2024-02-23T02:41:28;10.70;73.10
17415;DHT22;8825;48.086;16.426;2024-02-23T02:43:57;10.70;73.30
17415;DHT22;8825;48.086;16.426;2024-02-23T02:46:24;10.70;73.40
17415;DHT22;8825;48.086;16.426;2024-02-23T02:48:52;10.70;73.50
17415;DHT22;8825;48.086;16.426;2024-02-23T02:51:20;10.70;73.70
17415;DHT22;8825;48.086;16.426;2024-02-23T02:53:47;10.70;73.80
17415;DHT22;8825;48.086;16.426;2024-02-23T02:56:15;10.70;73.90
17415;DHT22;8825;48.086;16.426;2024-02-23T02:58:42;10.70;74.10
17415;DHT22;8825;48.086;16.426;2024-02-23T03:01:10;10.70;74.20
17415;DHT22;8825;48.086;16.426;2024-02-23T03:03:37;10.70;74.30
17415;DHT22;8825;48.086;16.426;2024-02-23T03:06:05;10.70;74.40
17415;DHT22;8825;48.086;16.426;2024-02-23T03:08:34;10.70;74.40
17415;DHT22;8825;48.086;16.426;2024-02-23T03:11:01;10.70;74.60
17415;DHT22;8825;48.086;16.426;2024-02-23T03:13:29;10.70;75.10
17415;DHT22;8825;48.086;16.426;2024-02-23T03:15:58;10.70;74.70
17415;DHT22;8825;48.086;16.426;2024-02-23T03:18:26;10.70;74.70
17415;DHT22;8825;48.086;16.426;2024-02-23T03:20:55;10.70;74.90
17415;DHT22;8825;48.086;16.426;2024-02-23T03:23:23;10.70;74.90
17415;DHT22;8825;48.086;16.426;2024-02-23T03:25:50;10.70;75.10
17415;DHT22;8825;48.086;16.426;2024-02-23T03:28:18;10.70;75.10
17415;DHT22;8825;48.086;16.426;2024-02-23T03:30:45;10.70;75.20
17415;DHT22;8825;48.086;16.426;2024-02-23T03:33:13;10.70;75.40
17415;DHT22;8825;48.086;16.426;2024-02-23T03:35:40;10.70;75.30
17415;DHT22;8825;48.086;16.426;2024-02-23T03:38:08;10.70;75.40
17415;DHT22;8825;48.086;16.426;2024-02-23T03:40:35;10.70;75.60
17415;DHT22;8825;48.086;16.426;2024-02-23T03:43:03;10.70;75.80
17415;DHT22;8825;48.086;16.426;2024-02-23T03:45:32;10.70;75.70
17415;DHT22;8825;48.086;16.426;2024-02-23T03:48:00;10.60;75.80
17415;DHT22;8825;48.086;16.426;2024-02-23T03:50:29;10.60;75.90
17415;DHT22;8825;48.086;16.426;2024-02-23T03:52:57;10.60;76.10
17415;DHT22;8825;48.086;16.426;2024-02-23T03:55:24;10.60;76.10
17415;DHT22;8825;48.086;16.426;2024-02-23T03:57:52;10.60;76.20
17415;DHT22;8825;48.086;16.426;2024-02-23T04:00:19;10.60;76.50
17415;DHT22;8825;48.086;16.426;2024-02-23T04:02:49;10.60;76.70
17415;DHT22;8825;48.086;16.426;2024-02-23T04:05:16;10.60;76.80
17415;DHT22;8825;48.086;16.426;2024-02-23T04:07:45;10.60;76.90
17415;DHT22;8825;48.086;16.426;2024-02-23T04:10:12;10.60;76.90
17415;DHT22;8825;48.086;16.426;2024-02-23T04:12:42;10.60;77.00
17415;DHT22;8825;48.086;16.426;2024-02-23T04:15:10;10.60;77.10
17415;DHT22;8825;48.086;16.426;2024-02-23T04:17:38;10.70;77.30
17415;DHT22;8825;48.086;16.426;2024-02-23T04:20:08;10.60;77.30
17415;DHT22;8825;48.086;16.426;2024-02-23T04:22:37;10.60;77.50
17415;DHT22;8825;48.086;16.426;2024-02-23T04:25:05;10.60;77.70
17415;DHT22;8825;48.086;16.426;2024-02-23T04:27:33;10.60;77.60
17415;DHT22;8825;48.086;16.426;2024-02-23T04:30:00;10.70;77.60
17415;DHT22;8825;48.086;16.426;2024-02-23T04:32:28;10.70;77.50
17415;DHT22;8825;48.086;16.426;2024-02-23T04:34:55;10.70;77.40
17415;DHT22;8825;48.086;16.426;2024-02-23T04:37:23;10.70;77.10
17415;DHT22;8825;48.086;16.426;2024-02-23T04:39:50;10.80;77.10
17415;DHT22;8825;48.086;16.426;2024-02-23T04:42:18;10.80;76.90
17415;DHT22;8825;48.086;16.426;2024-02-23T04:44:45;10.80;76.80
17415;DHT22;8825;48.086;16.426;2024-02-23T04:47:13;10.80;76.50
17415;DHT22;8825;48.086;16.426;2024-02-23T04:49:40;10.80;76.20
17415;DHT22;8825;48.086;16.426;2024-02-23T04:52:08;10.80;76.20
17415;DHT22;8825;48.086;16.426;2024-02-23T04:54:35;10.80;75.90
17415;DHT22;8825;48.086;16.426;2024-02-23T04:57:03;10.80;75.90
17415;DHT22;8825;48.086;16.426;2024-02-23T04:59:30;10.80;75.90
17415;DHT22;8825;48.086;16.426;2024-02-23T05:01:59;10.80;75.60
17415;DHT22;8825;48.086;16.426;2024-02-23T05:04:26;10.80;75.20
17415;DHT22;8825;48.086;16.426;2024-02-23T05:06:54;10.80;74.90
17415;DHT22;8825;48.086;16.426;2024-02-23T05:09:22;10.80;74.20
17415;DHT22;8825;48.086;16.426;2024-02-23T05:11:49;10.80;74.00
17415;DHT22;8825;48.086;16.426;2024-02-23T05:14:17;10.80;73.70
17415;DHT22;8825;48.086;16.426;2024-02-23T05:16:44;10.80;73.50
17415;DHT22;8825;48.086;16.426;2024-02-23T05:19:12;10.80;73.20
17415;DHT22;8825;48.086;16.426;2024-02-23T05:21:39;10.80;72.90
17415;DHT22;8825;48.086;16.426;2024-02-23T05:24:07;10.80;72.70
17415;DHT22;8825;48.086;16.426;2024-02-23T05:26:34;10.90;72.60
17415;DHT22;8825;48.086;16.426;2024-02-23T05:29:02;10.80;72.80
17415;DHT22;8825;48.086;16.426;2024-02-23T05:31:43;10.90;72.50
17415;DHT22;8825;48.086;16.426;2024-02-23T05:34:12;10.90;72.50
17415;DHT22;8825;48.086;16.426;2024-02-23T05:36:39;10.90;72.40
17415;DHT22;8825;48.086;16.426;2024-02-23T05:39:07;10.90;72.50
17415;DHT22;8825;48.086;16.426;2024-02-23T05:41:37;10.90;72.50
17415;DHT22;8825;48.086;16.426;2024-02-23T05:44:05;10.90;72.60
17415;DHT22;8825;48.086;16.426;2024-02-23T05:46:33;10.90;72.40
17415;DHT22;8825;48.086;16.426;2024-02-23T05:49:02;10.90;72.20
17415;DHT22;8825;48.086;16.426;2024-02-23T05:51:31;10.90;72.30
17415;DHT22;8825;48.086;16.426;2024-02-23T05:54:00;10.90;72.10
17415;DHT22;8825;48.086;16.426;2024-02-23T05:56:28;11.00;72.00
17415;DHT22;8825;48.086;16.426;2024-02-23T05:58:55;10.90;71.80
17415;DHT22;8825;48.086;16.426;2024-02-23T06:01:23;10.90;71.70
17415;DHT22;8825;48.086;16.426;2024-02-23T06:03:50;11.00;71.70
17415;DHT22;8825;48.086;16.426;2024-02-23T06:06:19;11.00;71.60
17415;DHT22;8825;48.086;16.426;2024-02-23T06:08:47;11.00;71.50
17415;DHT22;8825;48.086;16.426;2024-02-23T06:11:16;11.00;71.20
17415;DHT22;8825;48.086;16.426;2024-02-23T06:13:43;11.00;71.30
17415;DHT22;8825;48.086;16.426;2024-02-23T06:16:11;11.00;71.30
17415;DHT22;8825;48.086;16.426;2024-02-23T06:18:39;11.00;71.00
17415;DHT22;8825;48.086;16.426;2024-02-23T06:21:17;11.10;70.80
17415;DHT22;8825;48.086;16.426;2024-02-23T06:23:45;11.00;71.30
17415;DHT22;8825;48.086;16.426;2024-02-23T06:26:13;11.10;70.50
17415;DHT22;8825;48.086;16.426;2024-02-23T06:28:40;11.00;70.40
17415;DHT22;8825;48.086;16.426;2024-02-23T06:31:10;11.10;70.20
17415;DHT22;8825;48.086;16.426;2024-02-23T06:33:38;11.10;70.10
17415;DHT22;8825;48.086;16.426;2024-02-23T06:36:07;11.10;70.10
17415;DHT22;8825;48.086;16.426;2024-02-23T06:38:35;11.10;69.90
17415;DHT22;8825;48.086;16.426;2024-02-23T06:41:03;11.10;69.90
17415;DHT22;8825;48.086;16.426;2024-02-23T06:43:30;11.10;69.60
17415;DHT22;8825;48.086;16.426;2024-02-23T06:45:58;11.10;69.40
17415;DHT22;8825;48.086;16.426;2024-02-23T06:48:25;11.10;69.30
17415;DHT22;8825;48.086;16.426;2024-02-23T06:50:53;11.10;69.30
17415;DHT22;8825;48.086;16.426;2024-02-23T06:53:20;11.10;69.20
17415;DHT22;8825;48.086;16.426;2024-02-23T06:55:48;11.10;69.00
17415;DHT22;8825;48.086;16.426;2024-02-23T06:58:15;11.00;68.80
17415;DHT22;8825;48.086;16.426;2024-02-23T07:00:44;11.10;68.70
17415;DHT22;8825;48.086;16.426;2024-02-23T07:03:12;11.10;68.80
17415;DHT22;8825;48.086;16.426;2024-02-23T07:05:41;11.10;69.00
17415;DHT22;8825;48.086;16.426;2024-02-23T07:08:12;11.10;69.20
17415;DHT22;8825;48.086;16.426;2024-02-23T07:10:40;11.10;69.30
17415;DHT22;8825;48.086;16.426;2024-02-23T07:13:07;11.20;69.40
17415;DHT22;8825;48.086;16.426;2024-02-23T07:15:35;11.20;69.40
17415;DHT22;8825;48.086;16.426;2024-02-23T07:18:03;11.10;69.20
17415;DHT22;8825;48.086;16.426;2024-02-23T07:20:30;11.10;69.40
17415;DHT22;8825;48.086;16.426;2024-02-23T07:22:58;11.10;69.60
17415;DHT22;8825;48.086;16.426;2024-02-23T07:25:25;11.10;69.70
17415;DHT22;8825;48.086;16.426;2024-02-23T07:27:53;11.10;69.70
17415;DHT22;8825;48.086;16.426;2024-02-23T07:30:20;11.10;69.90
17415;DHT22;8825;48.086;16.426;2024-02-23T07:32:48;11.10;69.60
17415;DHT22;8825;48.086;16.426;2024-02-23T07:35:15;11.10;69.40
17415;DHT22;8825;48.086;16.426;2024-02-23T07:37:43;11.10;69.50
17415;DHT22;8825;48.086;16.426;2024-02-23T07:40:11;11.10;69.70
17415;DHT22;8825;48.086;16.426;2024-02-23T07:42:39;11.10;70.00
17415;DHT22;8825;48.086;16.426;2024-02-23T07:45:08;11.00;70.30
17415;DHT22;8825;48.086;16.426;2024-02-23T07:47:35;11.00;70.50
17415;DHT22;8825;48.086;16.426;2024-02-23T07:50:04;11.00;70.90
17415;DHT22;8825;48.086;16.426;2024-02-23T07:52:31;11.00;71.60
17415;DHT22;8825;48.086;16.426;2024-02-23T07:54:59;10.90;71.00
17415;DHT22;8825;48.086;16.426;2024-02-23T07:57:29;11.00;71.20
17415;DHT22;8825;48.086;16.426;2024-02-23T07:59:57;10.90;70.60
17415;DHT22;8825;48.086;16.426;2024-02-23T08:02:25;11.00;70.80
17415;DHT22;8825;48.086;16.426;2024-02-23T08:04:53;11.00;70.80
17415;DHT22;8825;48.086;16.426;2024-02-23T08:07:20;11.00;70.60
17415;DHT22;8825;48.086;16.426;2024-02-23T08:09:49;11.00;70.90
17415;DHT22;8825;48.086;16.426;2024-02-23T08:12:16;10.90;71.30
17415;DHT22;8825;48.086;16.426;2024-02-23T08:14:44;10.90;71.40
17415;DHT22;8825;48.086;16.426;2024-02-23T08:17:13;11.00;71.80
17415;DHT22;8825;48.086;16.426;2024-02-23T08:19:40;11.00;72.10
17415;DHT22;8825;48.086;16.426;2024-02-23T08:22:08;11.00;72.80
17415;DHT22;8825;48.086;16.426;2024-02-23T08:24:36;10.90;72.90
17415;DHT22;8825;48.086;16.426;2024-02-23T08:27:04;10.90;73.90
17415;DHT22;8825;48.086;16.426;2024-02-23T08:29:31;10.80;74.30
17415;DHT22;8825;48.086;16.426;2024-02-23T08:31:59;10.90;74.50
17415;DHT22;8825;48.086;16.426;2024-02-23T08:34:26;10.90;74.40
17415;DHT22;8825;48.086;16.426;2024-02-23T08:36:54;10.90;74.10
17415;DHT22;8825;48.086;16.426;2024-02-23T08:39:21;11.00;74.10
17415;DHT22;8825;48.086;16.426;2024-02-23T08:41:49;11.00;74.00
17415;DHT22;8825;48.086;16.426;2024-02-23T08:44:18;11.20;73.90
17415;DHT22;8825;48.086;16.426;2024-02-23T08:46:45;11.30;73.40
17415;DHT22;8825;48.086;16.426;2024-02-23T08:49:13;11.40;73.20
17415;DHT22;8825;48.086;16.426;2024-02-23T08:51:40;11.60;72.30
17415;DHT22;8825;48.086;16.426;2024-02-23T08:54:08;11.70;71.70
17415;DHT22;8825;48.086;16.426;2024-02-23T08:56:39;11.80;71.50
17415;DHT22;8825;48.086;16.426;2024-02-23T08:59:09;11.90;71.10
17415;DHT22;8825;48.086;16.426;2024-02-23T09:01:37;11.90;71.10
17415;DHT22;8825;48.086;16.426;2024-02-23T09:04:04;12.10;71.20
17415;DHT22;8825;48.086;16.426;2024-02-23T09:06:32;12.20;71.20
17415;DHT22;8825;48.086;16.426;2024-02-23T09:09:02;12.30;70.80
17415;DHT22;8825;48.086;16.426;2024-02-23T09:11:30;12.30;70.10
17415;DHT22;8825;48.086;16.426;2024-02-23T09:13:57;12.30;69.50
17415;DHT22;8825;48.086;16.426;2024-02-23T09:16:25;12.40;69.10
17415;DHT22;8825;48.086;16.426;2024-02-23T09:18:53;12.40;68.90
17415;DHT22;8825;48.086;16.426;2024-02-23T09:21:20;12.40;69.10
17415;DHT22;8825;48.086;16.426;2024-02-23T09:23:48;12.40;69.00
17415;DHT22;8825;48.086;16.426;2024-02-23T09:26:15;12.40;69.10
17415;DHT22;8825;48.086;16.426;2024-02-23T09:28:44;12.30;69.40
17415;DHT22;8825;48.086;16.426;2024-02-23T09:31:12;12.20;69.80
17415;DHT22;8825;48.086;16.426;2024-02-23T09:33:39;12.20;70.20
17415;DHT22;8825;48.086;16.426;2024-02-23T09:36:07;12.20;70.40
17415;DHT22;8825;48.086;16.426;2024-02-23T09:38:36;12.20;70.50
17415;DHT22;8825;48.086;16.426;2024-02-23T09:41:04;12.30;70.40
17415;DHT22;8825;48.086;16.426;2024-02-23T09:43:33;12.30;70.30
17415;DHT22;8825;48.086;16.426;2024-02-23T09:46:01;12.40;70.20
17415;DHT22;8825;48.086;16.426;2024-02-23T09:48:30;12.50;69.80
17415;DHT22;8825;48.086;16.426;2024-02-23T09:51:00;12.50;69.30
17415;DHT22;8825;48.086;16.426;2024-02-23T09:53:28;12.60;69.40
17415;DHT22;8825;48.086;16.426;2024-02-23T09:55:57;12.60;69.10
17415;DHT22;8825;48.086;16.426;2024-02-23T09:58:27;12.70;68.90
17415;DHT22;8825;48.086;16.426;2024-02-23T10:00:57;12.70;68.70
17415;DHT22;8825;48.086;16.426;2024-02-23T10:03:29;12.80;68.80
17415;DHT22;8825;48.086;16.426;2024-02-23T10:06:00;12.80;69.00
17415;DHT22;8825;48.086;16.426;2024-02-23T10:08:31;12.80;68.70
17415;DHT22;8825;48.086;16.426;2024-02-23T10:11:00;12.90;68.70
17415;DHT22;8825;48.086;16.426;2024-02-23T10:13:29;12.90;68.40
17415;DHT22;8825;48.086;16.426;2024-02-23T10:15:57;12.90;68.10
17415;DHT22;8825;48.086;16.426;2024-02-23T10:18:25;12.90;67.60
17415;DHT22;8825;48.086;16.426;2024-02-23T10:20:53;12.90;67.40
17415;DHT22;8825;48.086;16.426;2024-02-23T10:23:20;12.90;67.20
17415;DHT22;8825;48.086;16.426;2024-02-23T10:25:49;12.90;66.30
17415;DHT22;8825;48.086;16.426;2024-02-23T10:28:17;12.90;66.30
17415;DHT22;8825;48.086;16.426;2024-02-23T10:30:48;12.90;65.80
17415;DHT22;8825;48.086;16.426;2024-02-23T10:33:18;12.90;65.80
17415;DHT22;8825;48.086;16.426;2024-02-23T10:35:47;12.90;65.90
17415;DHT22;8825;48.086;16.426;2024-02-23T10:38:16;12.90;66.10
17415;DHT22;8825;48.086;16.426;2024-02-23T10:40:46;12.90;66.20
17415;DHT22;8825;48.086;16.426;2024-02-23T10:43:16;12.90;65.90
17415;DHT22;8825;48.086;16.426;2024-02-23T10:45:46;12.90;65.40
17415;DHT22;8825;48.086;16.426;2024-02-23T10:48:15;12.90;65.10
17415;DHT22;8825;48.086;16.426;2024-02-23T10:50:42;12.90;65.20
17415;DHT22;8825;48.086;16.426;2024-02-23T10:53:10;12.90;65.00
17415;DHT22;8825;48.086;16.426;2024-02-23T10:55:39;13.00;64.70
17415;DHT22;8825;48.086;16.426;2024-02-23T10:58:07;13.00;64.20
17415;DHT22;8825;48.086;16.426;2024-02-23T11:00:37;13.00;63.20
17415;DHT22;8825;48.086;16.426;2024-02-23T11:03:06;13.00;63.00
17415;DHT22;8825;48.086;16.426;2024-02-23T11:05:34;13.10;63.10
17415;DHT22;8825;48.086;16.426;2024-02-23T11:08:02;13.10;63.00
17415;DHT22;8825;48.086;16.426;2024-02-23T11:10:30;13.10;62.70
17415;DHT22;8825;48.086;16.426;2024-02-23T11:12:59;13.10;62.50
17415;DHT22;8825;48.086;16.426;2024-02-23T11:15:30;13.20;62.50
17415;DHT22;8825;48.086;16.426;2024-02-23T11:18:00;13.20;62.60
17415;DHT22;8825;48.086;16.426;2024-02-23T11:20:36;13.20;62.60
17415;DHT22;8825;48.086;16.426;2024-02-23T11:23:12;13.20;62.70
17415;DHT22;8825;48.086;16.426;2024-02-23T11:25:35;13.20;62.80
17415;DHT22;8825;48.086;16.426;2024-02-23T11:28:03;13.20;62.90
17415;DHT22;8825;48.086;16.426;2024-02-23T11:30:32;13.10;62.70
17415;DHT22;8825;48.086;16.426;2024-02-23T11:33:00;13.10;62.80
17415;DHT22;8825;48.086;16.426;2024-02-23T11:35:27;13.10;62.70
17415;DHT22;8825;48.086;16.426;2024-02-23T11:37:56;13.10;62.90
17415;DHT22;8825;48.086;16.426;2024-02-23T11:40:26;13.00;63.20
17415;DHT22;8825;48.086;16.426;2024-02-23T11:42:55;13.00;64.20
17415;DHT22;8825;48.086;16.426;2024-02-23T11:45:24;13.00;63.50
17415;DHT22;8825;48.086;16.426;2024-02-23T11:47:52;12.90;63.70
17415;DHT22;8825;48.086;16.426;2024-02-23T11:50:19;12.90;64.10
17415;DHT22;8825;48.086;16.426;2024-02-23T11:52:47;12.90;64.90
17415;DHT22;8825;48.086;16.426;2024-02-23T11:55:21;12.80;64.60
17415;DHT22;8825;48.086;16.426;2024-02-23T11:57:49;12.80;64.90
17415;DHT22;8825;48.086;16.426;2024-02-23T12:00:17;12.70;65.00
17415;DHT22;8825;48.086;16.426;2024-02-23T12:02:45;12.70;65.20
17415;DHT22;8825;48.086;16.426;2024-02-23T12:05:15;12.70;65.20
17415;DHT22;8825;48.086;16.426;2024-02-23T12:07:43;12.60;65.20
17415;DHT22;8825;48.086;16.426;2024-02-23T12:10:10;12.60;65.40
17415;DHT22;8825;48.086;16.426;2024-02-23T12:12:39;12.60;65.70
17415;DHT22;8825;48.086;16.426;2024-02-23T12:15:07;12.60;66.10
17415;DHT22;8825;48.086;16.426;2024-02-23T12:17:46;12.60;66.70
17415;DHT22;8825;48.086;16.426;2024-02-23T12:20:08;12.60;67.40
17415;DHT22;8825;48.086;16.426;2024-02-23T12:22:35;12.60;68.20
17415;DHT22;8825;48.086;16.426;2024-02-23T12:25:03;12.60;68.50
17415;DHT22;8825;48.086;16.426;2024-02-23T12:27:31;12.70;69.00
17415;DHT22;8825;48.086;16.426;2024-02-23T12:29:58;12.60;69.10
17415;DHT22;8825;48.086;16.426;2024-02-23T12:32:26;12.60;69.30
17415;DHT22;8825;48.086;16.426;2024-02-23T12:34:53;12.60;69.30
17415;DHT22;8825;48.086;16.426;2024-02-23T12:37:21;12.60;69.80
17415;DHT22;8825;48.086;16.426;2024-02-23T12:39:49;12.60;70.00
17415;DHT22;8825;48.086;16.426;2024-02-23T12:42:18;12.60;70.10
17415;DHT22;8825;48.086;16.426;2024-02-23T12:44:46;12.60;70.00
17415;DHT22;8825;48.086;16.426;2024-02-23T12:47:14;12.60;69.80
17415;DHT22;8825;48.086;16.426;2024-02-23T12:49:41;12.60;69.70
17415;DHT22;8825;48.086;16.426;2024-02-23T12:52:09;12.60;69.80
17415;DHT22;8825;48.086;16.426;2024-02-23T12:54:36;12.60;70.10
17415;DHT22;8825;48.086;16.426;2024-02-23T12:57:04;12.60;69.80
17415;DHT22;8825;48.086;16.426;2024-02-23T12:59:31;12.60;69.80
17415;DHT22;8825;48.086;16.426;2024-02-23T13:01:59;12.60;69.70
17415;DHT22;8825;48.086;16.426;2024-02-23T13:04:26;12.50;69.70
17415;DHT22;8825;48.086;16.426;2024-02-23T13:06:54;12.50;69.80
17415;DHT22;8825;48.086;16.426;2024-02-23T13:09:22;12.50;69.80
17415;DHT22;8825;48.086;16.426;2024-02-23T13:11:50;12.50;70.50
17415;DHT22;8825;48.086;16.426;2024-02-23T13:14:17;12.40;69.80
17415;DHT22;8825;48.086;16.426;2024-02-23T13:16:45;12.40;69.90
17415;DHT22;8825;48.086;16.426;2024-02-23T13:19:12;12.30;70.00
17415;DHT22;8825;48.086;16.426;2024-02-23T13:21:40;12.30;70.20
17415;DHT22;8825;48.086;16.426;2024-02-23T13:24:08;12.30;70.20
17415;DHT22;8825;48.086;16.426;2024-02-23T13:26:35;12.30;70.30
17415;DHT22;8825;48.086;16.426;2024-02-23T13:29:03;12.30;70.30
17415;DHT22;8825;48.086;16.426;2024-02-23T13:31:30;12.30;70.30
17415;DHT22;8825;48.086;16.426;2024-02-23T13:33:58;12.30;70.50
17415;DHT22;8825;48.086;16.426;2024-02-23T13:36:25;12.30;70.60
17415;DHT22;8825;48.086;16.426;2024-02-23T13:38:53;12.30;70.60
17415;DHT22;8825;48.086;16.426;2024-02-23T13:41:20;12.30;70.60
17415;DHT22;8825;48.086;16.426;2024-02-23T13:43:48;12.30;70.70
17415;DHT22;8825;48.086;16.426;2024-02-23T13:46:16;12.30;71.50
17415;DHT22;8825;48.086;16.426;2024-02-23T13:48:43;12.30;70.70
17415;DHT22;8825;48.086;16.426;2024-02-23T13:51:11;12.30;70.60
17415;DHT22;8825;48.086;16.426;2024-02-23T13:53:38;12.40;70.70
17415;DHT22;8825;48.086;16.426;2024-02-23T13:56:06;12.40;70.90
17415;DHT22;8825;48.086;16.426;2024-02-23T13:58:34;12.40;70.90
17415;DHT22;8825;48.086;16.426;2024-02-23T14:01:01;12.40;71.00
17415;DHT22;8825;48.086;16.426;2024-02-23T14:03:29;12.40;70.70
17415;DHT22;8825;48.086;16.426;2024-02-23T14:05:56;12.40;70.60
17415;DHT22;8825;48.086;16.426;2024-02-23T14:08:24;12.50;70.60
17415;DHT22;8825;48.086;16.426;2024-02-23T14:10:52;12.50;70.50
17415;DHT22;8825;48.086;16.426;2024-02-23T14:13:20;12.50;70.70
17415;DHT22;8825;48.086;16.426;2024-02-23T14:15:47;12.50;70.60
17415;DHT22;8825;48.086;16.426;2024-02-23T14:18:15;12.40;70.50
17415;DHT22;8825;48.086;16.426;2024-02-23T14:20:42;12.50;70.60
17415;DHT22;8825;48.086;16.426;2024-02-23T14:23:10;12.50;70.50
17415;DHT22;8825;48.086;16.426;2024-02-23T14:25:37;12.50;70.40
17415;DHT22;8825;48.086;16.426;2024-02-23T14:28:05;12.50;70.30
17415;DHT22;8825;48.086;16.426;2024-02-23T14:30:32;12.50;70.10
17415;DHT22;8825;48.086;16.426;2024-02-23T14:33:00;12.50;70.10
17415;DHT22;8825;48.086;16.426;2024-02-23T14:35:27;12.40;69.90
17415;DHT22;8825;48.086;16.426;2024-02-23T14:37:55;12.40;69.90
17415;DHT22;8825;48.086;16.426;2024-02-23T14:40:22;12.40;69.70
17415;DHT22;8825;48.086;16.426;2024-02-23T14:42:50;12.40;69.60
17415;DHT22;8825;48.086;16.426;2024-02-23T14:45:17;12.40;69.70
17415;DHT22;8825;48.086;16.426;2024-02-23T14:47:45;12.40;69.70
17415;DHT22;8825;48.086;16.426;2024-02-23T14:50:12;12.40;69.70
17415;DHT22;8825;48.086;16.426;2024-02-23T14:52:40;12.30;69.60
17415;DHT22;8825;48.086;16.426;2024-02-23T14:55:08;12.30;69.60
17415;DHT22;8825;48.086;16.426;2024-02-23T14:57:37;12.30;69.80
17415;DHT22;8825;48.086;16.426;2024-02-23T15:00:05;12.30;69.90
17415;DHT22;8825;48.086;16.426;2024-02-23T15:02:33;12.30;69.90
17415;DHT22;8825;48.086;16.426;2024-02-23T15:05:01;12.30;69.80
17415;DHT22;8825;48.086;16.426;2024-02-23T15:07:29;12.30;69.70
17415;DHT22;8825;48.086;16.426;2024-02-23T15:09:56;12.30;69.80
17415;DHT22;8825;48.086;16.426;2024-02-23T15:12:24;12.30;69.80
17415;DHT22;8825;48.086;16.426;2024-02-23T15:14:53;12.30;69.80
17415;DHT22;8825;48.086;16.426;2024-02-23T15:17:21;12.20;69.80
17415;DHT22;8825;48.086;16.426;2024-02-23T15:19:48;12.30;69.90
17415;DHT22;8825;48.086;16.426;2024-02-23T15:22:16;12.30;69.90
17415;DHT22;8825;48.086;16.426;2024-02-23T15:24:45;12.20;69.70
17415;DHT22;8825;48.086;16.426;2024-02-23T15:27:14;12.20;69.70
17415;DHT22;8825;48.086;16.426;2024-02-23T15:29:43;12.20;69.70
17415;DHT22;8825;48.086;16.426;2024-02-23T15:32:10;12.20;69.70
17415;DHT22;8825;48.086;16.426;2024-02-23T15:34:38;12.20;69.60